createdAt,value
2023-04-16T00:01:09.706Z,8.04
2023-04-16T00:03:36.436Z,8.12
2023-04-16T00:06:05.501Z,8.19
2023-04-16T00:08:32.223Z,8.20
2023-04-16T00:10:58.973Z,8.16
2023-04-16T00:13:27.547Z,8.14
2023-04-16T00:15:54.599Z,8.15
2023-04-16T00:18:23.847Z,8.14
2023-04-16T00:20:50.797Z,8.13
2023-04-16T00:23:17.457Z,8.13
2023-04-16T00:25:44.344Z,8.11
2023-04-16T00:28:12.128Z,8.12
2023-04-16T00:30:38.725Z,8.11
2023-04-16T00:33:05.514Z,8.10
2023-04-16T00:35:32.123Z,8.10
2023-04-16T00:37:58.893Z,8.12
2023-04-16T00:40:28.934Z,8.20
2023-04-16T00:42:57.045Z,8.23
2023-04-16T00:45:24.603Z,8.14
2023-04-16T00:47:51.350Z,8.19
2023-04-16T00:50:18.496Z,8.13
2023-04-16T00:52:50.470Z,8.19
2023-04-16T00:55:19.055Z,8.14
2023-04-16T00:57:46.135Z,8.20
2023-04-16T01:00:14.569Z,8.17
2023-04-16T01:02:41.572Z,8.16
2023-04-16T01:05:12.484Z,8.19
2023-04-16T01:07:38.980Z,8.20
2023-04-16T01:10:06.308Z,8.22
2023-04-16T01:12:34.418Z,8.20
2023-04-16T01:15:00.947Z,8.13
2023-04-16T01:17:27.761Z,8.25
2023-04-16T01:19:54.344Z,8.21
2023-04-16T01:22:21.100Z,8.13
2023-04-16T01:24:47.706Z,8.07
2023-04-16T01:27:14.223Z,8.13
2023-04-16T01:29:40.907Z,8.20
2023-04-16T01:32:07.533Z,8.18
2023-04-16T01:34:34.483Z,8.22
2023-04-16T01:37:01.487Z,8.21
2023-04-16T01:39:28.282Z,8.21
2023-04-16T01:41:54.811Z,8.14
2023-04-16T01:44:23.195Z,8.19
2023-04-16T01:46:49.597Z,8.17
2023-04-16T01:49:16.627Z,8.12
2023-04-16T01:51:43.410Z,8.20
2023-04-16T01:54:09.937Z,8.26
2023-04-16T01:56:36.433Z,8.25
2023-04-16T01:59:03.266Z,8.27
2023-04-16T02:01:30.157Z,8.30
2023-04-16T02:03:58.256Z,8.33
2023-04-16T02:06:24.996Z,8.27
2023-04-16T02:08:51.632Z,8.30
2023-04-16T02:11:18.275Z,8.30
2023-04-16T02:13:45.039Z,8.37
2023-04-16T02:16:11.685Z,8.33
2023-04-16T02:18:38.681Z,8.37
2023-04-16T02:21:06.839Z,8.32
2023-04-16T02:23:33.390Z,8.36
2023-04-16T02:26:01.362Z,8.33
2023-04-16T02:28:27.908Z,8.34
2023-04-16T02:30:54.973Z,8.36
2023-04-16T02:33:21.512Z,8.34
2023-04-16T02:35:48.698Z,8.31
2023-04-16T02:38:16.148Z,8.33
2023-04-16T02:40:42.656Z,8.26
2023-04-16T02:43:09.357Z,8.31
2023-04-16T02:45:35.929Z,8.24
2023-04-16T02:48:02.597Z,8.28
2023-04-16T02:50:29.198Z,8.35
2023-04-16T02:52:56.860Z,8.30
2023-04-16T02:55:24.416Z,8.32
2023-04-16T02:57:53.062Z,8.27
2023-04-16T03:00:19.683Z,8.31
2023-04-16T03:02:46.539Z,8.28
2023-04-16T03:05:13.023Z,8.30
2023-04-16T03:07:40.703Z,8.33
2023-04-16T03:10:08.927Z,8.29
2023-04-16T03:12:36.387Z,8.26
2023-04-16T03:15:03.342Z,8.30
2023-04-16T03:17:30.270Z,8.32
2023-04-16T03:19:57.021Z,8.31
2023-04-16T03:22:23.888Z,8.25
2023-04-16T03:24:50.427Z,8.26
2023-04-16T03:27:17.197Z,8.25
2023-04-16T03:29:43.709Z,8.17
2023-04-16T03:32:12.642Z,8.16
2023-04-16T03:34:39.415Z,8.19
2023-04-16T03:37:06.311Z,8.20
2023-04-16T03:39:34.166Z,8.24
2023-04-16T03:42:02.427Z,8.24
2023-04-16T03:44:29.848Z,8.24
2023-04-16T03:46:56.493Z,8.25
2023-04-16T03:49:24.373Z,8.25
2023-04-16T03:51:52.058Z,8.28
2023-04-16T03:54:20.093Z,8.30
2023-04-16T03:56:48.229Z,8.25
2023-04-16T03:59:15.082Z,8.19
2023-04-16T04:01:43.809Z,8.25
2023-04-16T04:04:11.090Z,8.25
2023-04-16T04:06:37.778Z,8.20
2023-04-16T04:09:04.830Z,8.27
2023-04-16T04:11:31.846Z,8.22
2023-04-16T04:13:58.543Z,8.30
2023-04-16T04:16:25.429Z,8.31
2023-04-16T04:18:52.756Z,8.30
2023-04-16T04:21:19.246Z,8.33
2023-04-16T04:23:45.708Z,8.21
2023-04-16T04:26:12.473Z,8.21
2023-04-16T04:28:38.977Z,8.22
2023-04-16T04:31:05.989Z,8.20
2023-04-16T04:33:33.673Z,8.24
2023-04-16T04:36:00.380Z,8.18
2023-04-16T04:38:27.098Z,8.23
2023-04-16T04:40:53.968Z,8.17
2023-04-16T04:43:20.907Z,8.24
2023-04-16T04:45:49.299Z,8.18
2023-04-16T04:48:16.351Z,8.20
2023-04-16T04:50:44.602Z,8.22
2023-04-16T04:53:11.213Z,8.16
2023-04-16T04:55:38.594Z,8.18
2023-04-16T04:58:08.896Z,8.16
2023-04-16T05:00:36.774Z,8.19
2023-04-16T05:03:10.422Z,8.25
2023-04-16T05:05:37.208Z,8.22
2023-04-16T05:08:04.191Z,8.25
2023-04-16T05:10:31.133Z,8.22
2023-04-16T05:12:57.596Z,8.24
2023-04-16T05:15:24.403Z,8.20
2023-04-16T05:17:51.359Z,8.20
2023-04-16T05:20:18.348Z,8.19
2023-04-16T05:22:44.806Z,8.25
2023-04-16T05:25:11.641Z,8.25
2023-04-16T05:27:38.510Z,8.26
2023-04-16T05:30:06.052Z,8.25
2023-04-16T05:32:32.782Z,8.23
2023-04-16T05:34:59.496Z,8.23
2023-04-16T05:37:26.072Z,8.27
2023-04-16T05:39:52.835Z,8.31
2023-04-16T05:42:19.542Z,8.30
2023-04-16T05:44:46.500Z,8.30
2023-04-16T05:47:13.247Z,8.35
2023-04-16T05:49:41.415Z,8.32
2023-04-16T05:52:08.029Z,8.24
2023-04-16T05:54:34.750Z,8.26
2023-04-16T05:57:02.356Z,8.25
2023-04-16T05:59:29.379Z,8.30
2023-04-16T06:01:55.933Z,8.28
2023-04-16T06:04:22.671Z,8.26
2023-04-16T06:06:49.280Z,8.27
2023-04-16T06:09:19.791Z,8.36
2023-04-16T06:11:46.871Z,8.25
2023-04-16T06:14:13.636Z,8.31
2023-04-16T06:16:40.219Z,8.34
2023-04-16T06:19:06.699Z,8.31
2023-04-16T06:21:34.037Z,8.30
2023-04-16T06:24:01.431Z,8.26
2023-04-16T06:26:28.021Z,8.32
2023-04-16T06:28:54.516Z,8.34
2023-04-16T06:31:25.873Z,8.35
2023-04-16T06:33:52.413Z,8.34
2023-04-16T06:36:19.171Z,8.31
2023-04-16T06:38:45.707Z,8.24
2023-04-16T06:41:13.968Z,8.30
2023-04-16T06:43:40.917Z,8.29
2023-04-16T06:46:07.572Z,8.32
2023-04-16T06:48:34.136Z,8.38
2023-04-16T06:51:01.863Z,8.31
2023-04-16T06:53:28.467Z,8.34
2023-04-16T06:55:55.176Z,8.37
2023-04-16T06:58:22.721Z,8.41
2023-04-16T07:00:49.947Z,8.44
2023-04-16T07:03:16.681Z,8.46
2023-04-16T07:05:43.584Z,8.55
2023-04-16T07:08:10.628Z,8.53
2023-04-16T07:10:38.399Z,8.53
2023-04-16T07:13:04.990Z,8.55
2023-04-16T07:15:31.517Z,8.50
2023-04-16T07:17:58.042Z,8.51
2023-04-16T07:20:24.549Z,8.48
2023-04-16T07:22:51.200Z,8.56
2023-04-16T07:25:17.903Z,8.57
2023-04-16T07:27:44.836Z,8.57
2023-04-16T07:30:11.927Z,8.58
2023-04-16T07:32:38.920Z,8.55
2023-04-16T07:35:06.153Z,8.65
2023-04-16T07:37:32.961Z,8.63
2023-04-16T07:40:00.924Z,8.61
2023-04-16T07:42:28.255Z,8.60
2023-04-16T07:44:55.507Z,8.59
2023-04-16T07:47:23.379Z,8.55
2023-04-16T07:49:50.735Z,8.65
2023-04-16T07:52:17.969Z,8.60
2023-04-16T07:54:44.635Z,8.60
2023-04-16T07:57:12.289Z,8.48
2023-04-16T07:59:39.065Z,8.56
2023-04-16T08:02:06.345Z,8.64
2023-04-16T08:04:33.470Z,8.65
2023-04-16T08:07:00.924Z,8.70
2023-04-16T08:09:29.385Z,8.62
2023-04-16T08:11:56.127Z,8.61
2023-04-16T08:14:22.853Z,8.59
2023-04-16T08:16:49.717Z,8.62
2023-04-16T08:19:16.573Z,8.54
2023-04-16T08:21:43.672Z,8.61
2023-04-16T08:24:10.363Z,8.61
2023-04-16T08:26:36.947Z,8.76
2023-04-16T08:29:03.564Z,8.73
2023-04-16T08:31:30.667Z,8.76
2023-04-16T08:33:57.283Z,8.76
2023-04-16T08:36:25.872Z,8.79
2023-04-16T08:38:52.613Z,8.76
2023-04-16T08:41:22.128Z,8.73
2023-04-16T08:43:51.891Z,8.78
2023-04-16T08:46:22.704Z,8.77
2023-04-16T08:48:53.380Z,8.81
2023-04-16T08:51:22.904Z,8.82
2023-04-16T08:53:56.039Z,8.78
2023-04-16T08:56:23.950Z,8.81
2023-04-16T08:58:52.784Z,8.75
2023-04-16T09:01:20.205Z,8.75
2023-04-16T09:03:48.390Z,8.78
2023-04-16T09:06:16.033Z,8.80
2023-04-16T09:08:45.620Z,8.77
2023-04-16T09:11:18.141Z,8.79
2023-04-16T09:13:48.275Z,8.83
2023-04-16T09:16:15.387Z,8.87
2023-04-16T09:18:42.231Z,8.82
2023-04-16T09:21:13.217Z,8.88
2023-04-16T09:23:40.678Z,8.88
2023-04-16T09:26:07.188Z,8.91
2023-04-16T09:28:41.070Z,8.94
2023-04-16T09:31:17.058Z,8.99
2023-04-16T09:34:00.433Z,8.99
2023-04-16T09:36:32.007Z,8.92
2023-04-16T09:38:59.339Z,9.03
2023-04-16T09:41:28.336Z,9.04
2023-04-16T09:43:56.272Z,9.01
2023-04-16T09:46:30.384Z,8.98
2023-04-16T09:48:58.663Z,8.98
2023-04-16T09:51:29.045Z,8.93
2023-04-16T09:53:57.298Z,8.98
2023-04-16T09:56:28.030Z,8.92
2023-04-16T09:59:00.446Z,8.98
2023-04-16T10:01:27.042Z,8.86
2023-04-16T10:03:56.228Z,8.92
2023-04-16T10:06:25.414Z,8.99
2023-04-16T10:08:53.965Z,9.02
2023-04-16T10:11:21.641Z,8.95
2023-04-16T10:13:49.463Z,9.02
2023-04-16T10:16:16.429Z,9.05
2023-04-16T10:18:45.290Z,9.06
2023-04-16T10:21:12.841Z,9.07
2023-04-16T10:23:42.143Z,9.07
2023-04-16T10:26:09.329Z,9.11
2023-04-16T10:28:37.448Z,9.12
2023-04-16T10:31:07.438Z,9.13
2023-04-16T10:33:37.848Z,9.13
2023-04-16T10:36:16.085Z,9.24
2023-04-16T10:38:50.859Z,9.28
2023-04-16T10:41:21.848Z,9.31
2023-04-16T10:43:51.675Z,9.27
2023-04-16T10:46:33.132Z,9.32
2023-04-16T10:49:12.845Z,9.24
2023-04-16T10:51:39.681Z,9.41
2023-04-16T10:54:09.296Z,9.44
2023-04-16T10:56:36.890Z,9.49
2023-04-16T10:59:07.883Z,9.37
2023-04-16T11:01:38.601Z,9.37
2023-04-16T11:04:20.987Z,9.46
2023-04-16T11:07:08.243Z,9.42
2023-04-16T11:09:48.100Z,9.45
2023-04-16T11:12:38.076Z,9.47
2023-04-16T11:15:05.538Z,9.39
2023-04-16T11:17:44.235Z,9.46
2023-04-16T11:20:19.879Z,9.43
2023-04-16T11:22:52.738Z,9.33
2023-04-16T11:25:21.637Z,9.41
2023-04-16T11:27:48.825Z,9.40
2023-04-16T11:30:15.695Z,9.50
2023-04-16T11:32:44.478Z,9.60
2023-04-16T11:35:16.344Z,9.62
2023-04-16T11:37:43.968Z,9.53
2023-04-16T11:40:11.198Z,9.49
2023-04-16T11:42:43.711Z,9.52
2023-04-16T11:45:12.523Z,9.64
2023-04-16T11:47:52.257Z,9.73
2023-04-16T11:50:21.982Z,9.69
2023-04-16T11:52:50.600Z,9.72
2023-04-16T11:55:17.334Z,9.62
2023-04-16T11:57:44.313Z,9.65
2023-04-16T12:00:14.173Z,9.76
2023-04-16T12:02:50.426Z,9.65
2023-04-16T12:05:31.746Z,9.82
2023-04-16T12:08:00.217Z,9.85
2023-04-16T12:10:27.555Z,9.91
2023-04-16T12:12:54.321Z,9.96
2023-04-16T12:15:21.025Z,10.00
2023-04-16T12:17:50.695Z,10.11
2023-04-16T12:20:18.094Z,10.13
2023-04-16T12:22:47.053Z,10.21
2023-04-16T12:25:16.754Z,10.16
2023-04-16T12:27:53.258Z,10.12
2023-04-16T12:30:22.613Z,10.33
2023-04-16T12:32:51.065Z,10.25
2023-04-16T12:35:34.487Z,10.10
2023-04-16T12:38:03.619Z,10.23
2023-04-16T12:40:30.151Z,10.37
2023-04-16T12:42:56.674Z,10.40
2023-04-16T12:45:26.428Z,10.51
2023-04-16T12:47:53.242Z,10.58
2023-04-16T12:50:19.811Z,10.50
2023-04-16T12:52:46.491Z,10.48
2023-04-16T12:55:15.965Z,10.61
2023-04-16T12:57:42.720Z,10.66
2023-04-16T13:00:10.699Z,10.52
2023-04-16T13:02:37.572Z,10.37
2023-04-16T13:05:04.715Z,10.41
2023-04-16T13:07:32.499Z,10.46
2023-04-16T13:10:00.286Z,10.42
2023-04-16T13:12:27.601Z,10.51
2023-04-16T13:14:58.312Z,10.49
2023-04-16T13:17:24.923Z,10.52
2023-04-16T13:19:51.455Z,10.52
2023-04-16T13:22:18.206Z,10.40
2023-04-16T13:24:46.553Z,10.43
2023-04-16T13:27:13.438Z,10.31
2023-04-16T13:29:40.355Z,10.36
2023-04-16T13:32:06.987Z,10.41
2023-04-16T13:34:33.453Z,10.42
2023-04-16T13:36:59.943Z,10.44
2023-04-16T13:39:27.813Z,10.23
2023-04-16T13:41:54.628Z,10.27
2023-04-16T13:44:21.974Z,10.22
2023-04-16T13:46:48.507Z,10.14
2023-04-16T13:49:16.559Z,10.33
2023-04-16T13:51:44.799Z,10.25
2023-04-16T13:54:11.249Z,10.40
2023-04-16T13:56:37.908Z,10.25
2023-04-16T13:59:04.656Z,10.41
2023-04-16T14:01:31.491Z,10.43
2023-04-16T14:03:59.634Z,10.33
2023-04-16T14:06:27.292Z,10.37
2023-04-16T14:08:53.932Z,10.33
2023-04-16T14:11:20.537Z,10.32
2023-04-16T14:13:47.542Z,10.36
2023-04-16T14:16:14.457Z,10.43
2023-04-16T14:18:42.456Z,10.55
2023-04-16T14:21:09.362Z,10.61
2023-04-16T14:23:35.804Z,10.68
2023-04-16T14:26:03.499Z,10.64
2023-04-16T14:28:30.252Z,10.68
2023-04-16T14:30:56.741Z,10.62
2023-04-16T14:33:24.055Z,10.69
2023-04-16T14:35:51.475Z,10.59
2023-04-16T14:38:18.277Z,10.68
2023-04-16T14:40:44.836Z,10.54
2023-04-16T14:43:14.190Z,10.54
2023-04-16T14:45:41.669Z,10.65
2023-04-16T14:48:08.340Z,10.58
2023-04-16T14:50:39.110Z,10.35
2023-04-16T14:53:05.976Z,10.50
2023-04-16T14:55:32.768Z,10.46
2023-04-16T14:57:59.886Z,10.43
2023-04-16T15:00:27.779Z,10.47
2023-04-16T15:02:55.588Z,10.41
2023-04-16T15:05:22.330Z,10.40
2023-04-16T15:07:49.259Z,10.35
2023-04-16T15:10:15.792Z,10.37
2023-04-16T15:12:42.752Z,10.44
2023-04-16T15:15:10.012Z,10.33
2023-04-16T15:17:36.812Z,10.33
2023-04-16T15:20:08.349Z,10.27
2023-04-16T15:22:35.511Z,10.32
2023-04-16T15:25:04.667Z,10.34
2023-04-16T15:27:31.236Z,10.33
2023-04-16T15:30:00.162Z,10.35
2023-04-16T15:32:27.950Z,10.38
2023-04-16T15:34:54.788Z,10.33
2023-04-16T15:37:21.686Z,10.26
2023-04-16T15:39:48.420Z,10.32
2023-04-16T15:42:15.732Z,10.18
2023-04-16T15:44:42.350Z,10.24
2023-04-16T15:47:08.976Z,10.21
2023-04-16T15:49:36.124Z,10.28
2023-04-16T15:52:02.989Z,10.29
2023-04-16T15:54:32.642Z,10.23
2023-04-16T15:57:00.209Z,10.25
2023-04-16T15:59:27.245Z,10.25
2023-04-16T16:01:54.058Z,10.18
2023-04-16T16:04:22.789Z,10.14
2023-04-16T16:06:51.090Z,10.11
2023-04-16T16:09:17.926Z,9.99
2023-04-16T16:11:44.608Z,9.95
2023-04-16T16:14:11.658Z,10.04
2023-04-16T16:16:39.792Z,9.96
2023-04-16T16:19:06.935Z,10.00
2023-04-16T16:21:33.676Z,10.05
2023-04-16T16:24:00.392Z,9.81
2023-04-16T16:26:27.437Z,9.94
2023-04-16T16:28:54.005Z,9.84
2023-04-16T16:31:21.047Z,9.96
2023-04-16T16:33:48.798Z,10.00
2023-04-16T16:36:15.744Z,9.91
2023-04-16T16:38:42.675Z,9.91
2023-04-16T16:41:09.508Z,9.75
2023-04-16T16:43:39.060Z,9.70
2023-04-16T16:46:07.707Z,9.68
2023-04-16T16:48:34.632Z,9.72
2023-04-16T16:51:01.252Z,9.68
2023-04-16T16:53:28.010Z,9.59
2023-04-16T16:55:54.472Z,9.61
2023-04-16T16:58:21.092Z,9.60
2023-04-16T17:00:47.602Z,9.49
2023-04-16T17:03:14.589Z,9.41
2023-04-16T17:05:41.496Z,9.52
2023-04-16T17:08:08.451Z,9.49
2023-04-16T17:10:35.914Z,9.42
2023-04-16T17:13:02.513Z,9.48
2023-04-16T17:15:29.369Z,9.46
2023-04-16T17:17:55.947Z,9.56
2023-04-16T17:20:27.581Z,9.50
2023-04-16T17:22:54.356Z,9.42
2023-04-16T17:25:21.126Z,9.43
2023-04-16T17:27:47.900Z,9.41
2023-04-16T17:30:14.693Z,9.41
2023-04-16T17:32:41.278Z,9.39
2023-04-16T17:35:09.434Z,9.37
2023-04-16T17:37:36.210Z,9.39
2023-04-16T17:40:07.628Z,9.48
2023-04-16T17:42:35.214Z,9.38
2023-04-16T17:45:02.885Z,9.35
2023-04-16T17:47:29.546Z,9.31
2023-04-16T17:49:56.172Z,9.28
2023-04-16T17:52:23.375Z,9.27
2023-04-16T17:54:50.150Z,9.33
2023-04-16T17:57:16.927Z,9.26
2023-04-16T17:59:43.500Z,9.18
2023-04-16T18:02:10.130Z,9.11
2023-04-16T18:04:37.391Z,9.11
2023-04-16T18:07:04.133Z,9.11
2023-04-16T18:09:31.472Z,8.98
2023-04-16T18:11:58.106Z,9.09
2023-04-16T18:14:25.387Z,9.00
2023-04-16T18:16:51.942Z,9.10
2023-04-16T18:19:18.561Z,9.02
2023-04-16T18:21:45.364Z,9.04
2023-04-16T18:24:12.424Z,9.07
2023-04-16T18:26:41.036Z,9.02
2023-04-16T18:29:09.183Z,9.10
2023-04-16T18:31:38.796Z,8.96
2023-04-16T18:34:09.291Z,9.04
2023-04-16T18:36:35.867Z,8.98
2023-04-16T18:39:03.062Z,8.97
2023-04-16T18:41:31.384Z,8.83
2023-04-16T18:43:57.987Z,8.85
2023-04-16T18:46:25.423Z,8.90
2023-04-16T18:48:52.411Z,8.84
2023-04-16T18:51:20.279Z,8.87
2023-04-16T18:53:47.051Z,8.93
2023-04-16T18:56:13.610Z,8.76
2023-04-16T18:58:40.722Z,8.87
2023-04-16T19:01:11.326Z,8.95
2023-04-16T19:03:39.126Z,8.94
2023-04-16T19:06:06.100Z,8.94
2023-04-16T19:08:33.110Z,8.81
2023-04-16T19:10:59.852Z,8.97
2023-04-16T19:13:26.601Z,8.98
2023-04-16T19:16:01.118Z,8.86
2023-04-16T19:18:28.012Z,8.73
2023-04-16T19:21:02.651Z,8.78
2023-04-16T19:23:29.475Z,8.81
2023-04-16T19:25:56.930Z,8.78
2023-04-16T19:28:25.723Z,8.77
2023-04-16T19:30:53.201Z,8.74
2023-04-16T19:33:20.526Z,8.71
2023-04-16T19:35:48.219Z,8.66
2023-04-16T19:38:14.930Z,8.64
2023-04-16T19:40:46.901Z,8.70
2023-04-16T19:43:13.860Z,8.71
2023-04-16T19:45:47.827Z,8.64
2023-04-16T19:48:14.865Z,8.61
2023-04-16T19:50:42.591Z,8.56
2023-04-16T19:53:09.624Z,8.54
2023-04-16T19:55:36.587Z,8.45
2023-04-16T19:58:06.572Z,8.58
2023-04-16T20:00:35.484Z,8.59
2023-04-16T20:03:03.030Z,8.49
2023-04-16T20:05:31.941Z,8.54
2023-04-16T20:07:59.134Z,8.67
2023-04-16T20:10:26.676Z,8.57
2023-04-16T20:12:53.968Z,8.58
2023-04-16T20:15:20.929Z,8.58
2023-04-16T20:17:48.079Z,8.61
2023-04-16T20:20:16.435Z,8.56
2023-04-16T20:22:44.736Z,8.55
2023-04-16T20:25:11.707Z,8.49
2023-04-16T20:27:38.507Z,8.52
2023-04-16T20:30:06.588Z,8.46
2023-04-16T20:32:33.366Z,8.28
2023-04-16T20:35:00.503Z,8.10
2023-04-16T20:37:29.237Z,8.31
2023-04-16T20:39:56.611Z,8.35
2023-04-16T20:42:26.626Z,8.38
2023-04-16T20:44:56.812Z,8.34
2023-04-16T20:47:23.940Z,8.37
2023-04-16T20:49:52.729Z,8.21
2023-04-16T20:52:19.834Z,8.32
2023-04-16T20:54:47.261Z,8.26
2023-04-16T20:57:16.057Z,8.37
2023-04-16T20:59:42.816Z,8.33
2023-04-16T21:02:09.582Z,8.18
2023-04-16T21:04:36.469Z,8.21
2023-04-16T21:07:04.437Z,8.25
2023-04-16T21:09:31.683Z,8.28
2023-04-16T21:11:58.679Z,8.35
2023-04-16T21:14:25.755Z,8.18
2023-04-16T21:16:56.039Z,8.35
2023-04-16T21:19:22.964Z,8.08
2023-04-16T21:21:50.145Z,8.04
2023-04-16T21:24:16.993Z,8.33
2023-04-16T21:26:44.088Z,8.37
2023-04-16T21:29:11.103Z,8.28
2023-04-16T21:31:38.002Z,8.39
2023-04-16T21:34:07.496Z,8.42
2023-04-16T21:36:35.250Z,8.17
2023-04-16T21:39:02.523Z,8.01
2023-04-16T21:41:29.642Z,8.36
2023-04-16T21:43:56.522Z,8.23
2023-04-16T21:46:25.840Z,8.22
2023-04-16T21:48:52.788Z,8.21
2023-04-16T21:51:20.449Z,8.25
2023-04-16T21:53:47.249Z,8.21
2023-04-16T21:56:15.097Z,8.14
2023-04-16T21:58:41.794Z,8.21
2023-04-16T22:01:10.818Z,8.08
2023-04-16T22:03:40.445Z,8.04
2023-04-16T22:06:07.919Z,8.03
2023-04-16T22:08:34.881Z,8.14
2023-04-16T22:11:03.014Z,8.11
2023-04-16T22:13:32.751Z,8.11
2023-04-16T22:16:03.366Z,8.06
2023-04-16T22:18:34.380Z,8.10
2023-04-16T22:21:01.586Z,8.16
2023-04-16T22:23:28.310Z,8.16
2023-04-16T22:25:56.050Z,8.14
2023-04-16T22:28:23.640Z,8.07
2023-04-16T22:30:51.163Z,8.02
2023-04-16T22:33:18.419Z,7.99
2023-04-16T22:35:45.807Z,7.87
2023-04-16T22:38:13.503Z,7.90
2023-04-16T22:40:40.771Z,7.93
2023-04-16T22:43:07.766Z,7.76
2023-04-16T22:45:34.913Z,7.82
2023-04-16T22:48:01.684Z,8.01
2023-04-16T22:50:31.478Z,7.92
2023-04-16T22:52:59.976Z,8.04
2023-04-16T22:55:27.158Z,7.86
2023-04-16T22:57:58.507Z,8.10
2023-04-16T23:00:26.654Z,8.06
2023-04-16T23:02:54.113Z,8.06
2023-04-16T23:05:22.062Z,8.09
2023-04-16T23:07:49.017Z,7.83
2023-04-16T23:10:16.509Z,8.06
2023-04-16T23:12:43.191Z,8.00
2023-04-16T23:15:10.586Z,7.87
2023-04-16T23:17:39.524Z,8.06
2023-04-16T23:20:07.778Z,7.98
2023-04-16T23:22:34.961Z,8.04
2023-04-16T23:25:01.764Z,8.08
2023-04-16T23:27:28.356Z,8.06
2023-04-16T23:29:56.586Z,8.02
2023-04-16T23:32:23.493Z,7.95
2023-04-16T23:34:50.329Z,7.89
2023-04-16T23:37:17.608Z,7.75
2023-04-16T23:39:44.905Z,7.94
2023-04-16T23:42:11.903Z,7.95
2023-04-16T23:44:38.494Z,7.82
2023-04-16T23:47:05.511Z,7.87
2023-04-16T23:49:32.477Z,7.81
2023-04-16T23:51:59.263Z,7.84
2023-04-16T23:54:26.042Z,7.81
2023-04-16T23:56:52.877Z,7.89
2023-04-16T23:59:19.635Z,7.79
